Nashville, Tennessee
Traffic Map
Current Weather Conditions
Nashville, Tennessee
Broken Clouds
Broken Clouds
26°
Feels Like: 28°
Wind Chill: 26° Ceiling: 25000
Heat Index: 28° Visibility: 8mi
Dew Point: 25° Wind: 3mph
Humidity: 94% Direction: 140° (SE)
Pressure: 29.96in Gusts: 0mph
Raw Report DataKBNA 280753Z 14003KT 8SM BKN250 26/25 A2996 RMK AO2 SLP135 T02610250 $
Traffic Incident Summary
Active as of:
Severity:
Category:
InformationThere was an issue retrieving the traffic information for this location. Please try a different location or try again shortly.
Advertisements
Track Severe Weather on mobile